createdAt,value
2022-11-04T00:05:01.002Z,98061.05
2022-11-04T00:10:02.885Z,98059.09
2022-11-04T00:15:25.558Z,98053.86
2022-11-04T00:20:46.115Z,98050.33
2022-11-04T00:26:06.520Z,98045.92
2022-11-04T00:31:28.678Z,98034.77
2022-11-04T00:36:30.500Z,98028.73
2022-11-04T00:41:32.392Z,98021.67
2022-11-04T00:46:34.837Z,98021.68
2022-11-04T00:51:36.700Z,98030.16
2022-11-04T00:56:39.575Z,98023.46
2022-11-04T01:01:42.218Z,98013.17
2022-11-04T01:06:44.695Z,98013.32
2022-11-04T01:11:46.648Z,98003.38
2022-11-04T01:16:52.026Z,97995.61
2022-11-04T01:21:53.908Z,97984.74
2022-11-04T01:26:55.855Z,97983.35
2022-11-04T01:31:57.776Z,97973.16
2022-11-04T01:36:59.627Z,97967.41
2022-11-04T01:42:01.617Z,97968.95
2022-11-04T01:47:04.618Z,97961.61
2022-11-04T01:52:15.410Z,97954.20
2022-11-04T01:57:25.273Z,97946.87
2022-11-04T02:02:27.357Z,97940.39
2022-11-04T02:07:29.949Z,97928.00
2022-11-04T02:12:50.133Z,97920.86
2022-11-04T02:18:10.956Z,97916.85
2022-11-04T02:23:48.800Z,97911.23
2022-11-04T02:29:18.842Z,97907.66
2022-11-04T02:34:26.010Z,97901.38
2022-11-04T02:39:51.344Z,97896.66
2022-11-04T02:45:21.937Z,97900.00
2022-11-04T02:50:33.675Z,97899.93
2022-11-04T02:55:43.303Z,97900.84
2022-11-04T03:00:47.097Z,97897.98
2022-11-04T03:05:52.709Z,97902.69
2022-11-04T03:10:59.427Z,97893.21
2022-11-04T03:16:09.449Z,97889.18
2022-11-04T03:21:15.529Z,97884.11
2022-11-04T03:26:32.710Z,97873.06
2022-11-04T03:31:54.527Z,97862.90
2022-11-04T03:36:57.312Z,97856.09
2022-11-04T03:42:20.338Z,97855.97
2022-11-04T03:47:25.982Z,97847.90
2022-11-04T03:52:27.866Z,97848.83
2022-11-04T03:57:51.240Z,97854.14
2022-11-04T04:03:06.734Z,97850.52
2022-11-04T04:08:34.607Z,97841.00
2022-11-04T04:13:36.551Z,97826.06
2022-11-04T04:18:55.785Z,97815.27
2022-11-04T04:24:24.678Z,97815.29
2022-11-04T04:29:29.513Z,97809.33
2022-11-04T04:34:33.557Z,97807.33
2022-11-04T04:40:00.839Z,97804.88
2022-11-04T04:45:05.580Z,97800.70
2022-11-04T04:50:09.195Z,97793.95
2022-11-04T04:55:12.535Z,97790.45
2022-11-04T05:00:19.986Z,97788.77
2022-11-04T05:05:21.976Z,97786.32
2022-11-04T05:10:26.089Z,97777.34
2022-11-04T05:15:31.406Z,97764.34
2022-11-04T05:20:34.562Z,97771.73
2022-11-04T05:25:36.544Z,97772.34
2022-11-04T05:30:38.473Z,97771.90
2022-11-04T05:35:40.443Z,97767.58
2022-11-04T05:40:42.341Z,97762.92
2022-11-04T05:45:44.144Z,97762.91
2022-11-04T05:50:45.987Z,97764.81
2022-11-04T05:55:47.817Z,97771.17
2022-11-04T06:00:49.679Z,97775.98
2022-11-04T06:05:51.510Z,97778.77
2022-11-04T06:10:53.411Z,97784.62
2022-11-04T06:15:55.263Z,97790.02
2022-11-04T06:21:15.377Z,97793.73
2022-11-04T06:26:18.313Z,97796.27
2022-11-04T06:31:20.626Z,97801.29
2022-11-04T06:36:22.485Z,97805.27
2022-11-04T06:41:25.113Z,97798.80
2022-11-04T06:46:40.256Z,97802.47
2022-11-04T06:51:42.162Z,97805.48
2022-11-04T06:56:45.075Z,97805.67
2022-11-04T07:01:49.316Z,97805.66
2022-11-04T07:06:51.302Z,97799.17
2022-11-04T07:11:53.104Z,97798.92
2022-11-04T07:16:54.926Z,97795.02
2022-11-04T07:21:58.019Z,97795.20
2022-11-04T07:32:07.601Z,97790.67
2022-11-04T07:37:09.851Z,97789.23
2022-11-04T07:42:11.743Z,97787.89
2022-11-04T07:47:14.601Z,97779.60
2022-11-04T07:52:16.830Z,97783.09
2022-11-04T07:57:18.681Z,97780.89
2022-11-04T08:02:25.786Z,97781.33
2022-11-04T08:07:29.561Z,97768.70
2022-11-04T08:12:32.495Z,97765.51
2022-11-04T08:17:34.369Z,97764.42
2022-11-04T08:22:36.555Z,97758.06
2022-11-04T08:27:38.368Z,97754.76
2022-11-04T08:32:40.312Z,97756.52
2022-11-04T08:37:42.197Z,97749.42
2022-11-04T08:42:44.013Z,97735.66
2022-11-04T08:47:45.818Z,97727.44
2022-11-04T08:52:48.257Z,97725.58
2022-11-04T08:57:51.288Z,97728.34
2022-11-04T09:02:53.187Z,97723.17
2022-11-04T09:07:55.672Z,97724.33
2022-11-04T09:12:57.570Z,97724.60
2022-11-04T09:17:59.530Z,97721.58
2022-11-04T09:23:01.564Z,97712.76
2022-11-04T09:28:04.783Z,97709.79
2022-11-04T09:33:06.796Z,97709.70
2022-11-04T09:38:08.964Z,97708.55
2022-11-04T09:43:39.730Z,97705.02
2022-11-04T09:48:53.808Z,97705.27
2022-11-04T09:54:02.832Z,97699.88
2022-11-04T09:59:06.445Z,97702.23
2022-11-04T10:04:33.358Z,97705.42
2022-11-04T10:09:43.380Z,97705.05
2022-11-04T10:14:50.964Z,97703.97
2022-11-04T10:20:18.072Z,97700.70
2022-11-04T10:25:28.179Z,97696.66
2022-11-04T10:30:32.228Z,97693.89
2022-11-04T10:35:42.803Z,97691.02
2022-11-04T10:40:51.333Z,97693.80
2022-11-04T10:46:22.659Z,97691.34
2022-11-04T10:51:24.776Z,97696.51
2022-11-04T10:56:42.600Z,97692.26
2022-11-04T11:01:56.805Z,97688.98
2022-11-04T11:07:00.594Z,97690.23
2022-11-04T11:12:44.122Z,97689.40
2022-11-04T11:17:34.488Z,97680.89
2022-11-04T11:22:41.704Z,97678.64
2022-11-04T11:27:49.938Z,97677.13
2022-11-04T11:33:01.397Z,97664.52
2022-11-04T11:38:06.055Z,97665.23
2022-11-04T11:43:21.320Z,97657.77
2022-11-04T11:48:29.978Z,97645.17
2022-11-04T11:53:34.473Z,97640.34
2022-11-04T12:09:42.077Z,97642.73
2022-11-04T12:15:07.081Z,97638.56
2022-11-04T12:21:00.115Z,97637.56
2022-11-04T12:26:20.256Z,97637.04
2022-11-04T12:31:45.363Z,97637.20
2022-11-04T12:37:01.928Z,97632.59
2022-11-04T12:42:20.527Z,97627.14
2022-11-04T12:47:38.828Z,97619.73
2022-11-04T12:52:54.264Z,97607.06
2022-11-04T12:58:17.559Z,97610.91
2022-11-04T13:03:30.320Z,97619.25
2022-11-04T13:08:41.981Z,97615.98
2022-11-04T13:13:44.106Z,97608.17
2022-11-04T13:18:48.026Z,97612.81
2022-11-04T13:23:58.144Z,97611.37
2022-11-04T13:29:09.121Z,97609.38
2022-11-04T13:34:48.051Z,97603.99
2022-11-04T13:39:57.718Z,97605.23
2022-11-04T13:45:14.955Z,97612.11
2022-11-04T13:50:37.016Z,97627.97
2022-11-04T13:55:50.393Z,97635.83
2022-11-04T14:01:14.010Z,97630.89
2022-11-04T14:06:16.040Z,97627.62
2022-11-04T14:11:17.843Z,97618.96
2022-11-04T14:16:25.485Z,97614.83
2022-11-04T14:21:29.524Z,97625.98
2022-11-04T14:26:48.616Z,97631.41
2022-11-04T14:31:53.183Z,97620.56
2022-11-04T14:37:05.455Z,97630.77
2022-11-04T14:42:14.004Z,97625.90
2022-11-04T14:47:22.055Z,97622.75
2022-11-04T14:52:35.165Z,97619.27
2022-11-04T14:57:42.456Z,97624.94
2022-11-04T15:02:44.350Z,97625.50
2022-11-04T15:07:46.239Z,97615.38
2022-11-04T15:12:52.036Z,97597.88
2022-11-04T15:18:01.843Z,97591.00
2022-11-04T15:23:06.859Z,97580.12
2022-11-04T15:28:18.061Z,97580.69
2022-11-04T15:33:20.012Z,97576.23
2022-11-04T15:38:24.324Z,97574.34
2022-11-04T15:43:26.234Z,97570.58
2022-11-04T15:48:33.818Z,97556.13
2022-11-04T15:53:50.573Z,97553.77
2022-11-04T15:58:54.536Z,97562.95
2022-11-04T16:04:00.470Z,97554.31
2022-11-04T16:09:25.940Z,97552.84
2022-11-04T16:14:30.169Z,97557.62
2022-11-04T16:19:32.491Z,97557.14
2022-11-04T16:24:37.987Z,97560.74
2022-11-04T16:29:45.213Z,97562.07
2022-11-04T16:34:52.362Z,97557.00
2022-11-04T16:39:54.403Z,97559.38
2022-11-04T16:45:02.640Z,97563.91
2022-11-04T16:50:13.225Z,97566.80
2022-11-04T16:55:15.941Z,97563.16
2022-11-04T17:00:20.963Z,97561.27
2022-11-04T17:05:23.106Z,97561.23
2022-11-04T17:10:27.965Z,97549.02
2022-11-04T17:15:29.783Z,97540.32
2022-11-04T17:20:32.043Z,97533.73
2022-11-04T17:25:33.897Z,97530.71
2022-11-04T17:30:36.077Z,97525.73
2022-11-04T17:35:38.419Z,97529.46
2022-11-04T17:40:59.182Z,97535.61
2022-11-04T17:46:20.956Z,97526.25
2022-11-04T17:51:23.114Z,97521.55
2022-11-04T17:56:25.644Z,97520.06
2022-11-04T18:01:28.148Z,97524.09
2022-11-04T18:06:32.593Z,97529.65
2022-11-04T18:11:53.123Z,97533.94
2022-11-04T18:16:55.110Z,97523.98
2022-11-04T18:21:57.407Z,97520.14
2022-11-04T18:26:59.862Z,97514.02
2022-11-04T18:32:01.778Z,97508.85
2022-11-04T18:37:03.794Z,97508.19
2022-11-04T18:42:05.702Z,97501.84
2022-11-04T18:47:07.495Z,97503.52
2022-11-04T18:52:09.330Z,97510.43
2022-11-04T18:57:12.187Z,97508.73
2022-11-04T19:02:19.839Z,97518.86
2022-11-04T19:07:21.665Z,97534.73
2022-11-04T19:12:42.100Z,97529.20
2022-11-04T19:17:44.035Z,97525.80
2022-11-04T19:22:46.129Z,97527.91
2022-11-04T19:28:00.069Z,97544.24
2022-11-04T19:33:10.886Z,97553.92
2022-11-04T19:38:12.986Z,97556.69
2022-11-04T19:43:15.199Z,97560.46
2022-11-04T19:48:18.976Z,97556.93
2022-11-04T19:53:21.134Z,97561.67
2022-11-04T19:58:23.401Z,97574.80
2022-11-04T20:03:25.223Z,97588.02
2022-11-04T20:08:27.230Z,97585.89
2022-11-04T20:13:44.428Z,97586.98
2022-11-04T20:18:50.697Z,97603.02
2022-11-04T20:23:57.613Z,97616.00
2022-11-04T20:29:00.448Z,97634.21
2022-11-04T20:34:05.114Z,97646.87
2022-11-04T20:39:18.329Z,97652.52
2022-11-04T20:44:20.295Z,97661.17
2022-11-04T20:49:22.283Z,97665.90
2022-11-04T20:54:24.187Z,97672.25
2022-11-04T20:59:27.617Z,97680.61
2022-11-04T21:04:34.799Z,97677.06
2022-11-04T21:09:37.955Z,97673.96
2022-11-04T21:14:39.827Z,97665.53
2022-11-04T21:19:41.730Z,97669.52
2022-11-04T21:24:43.569Z,97674.84
2022-11-04T21:29:45.578Z,97678.82
2022-11-04T21:34:47.430Z,97678.50
2022-11-04T21:39:49.240Z,97681.87
2022-11-04T21:44:51.049Z,97685.44
2022-11-04T21:49:52.864Z,97685.76
2022-11-04T21:54:54.633Z,97692.52
2022-11-04T21:59:56.428Z,97695.45
2022-11-04T22:04:58.242Z,97699.28
2022-11-04T22:10:00.095Z,97694.33
2022-11-04T22:15:09.094Z,97694.77
2022-11-04T22:20:11.293Z,97697.89
2022-11-04T22:25:13.159Z,97706.02
2022-11-04T22:30:15.009Z,97711.23
2022-11-04T22:35:17.079Z,97708.88
2022-11-04T22:40:18.997Z,97701.41
2022-11-04T22:45:20.834Z,97697.23
2022-11-04T22:50:23.098Z,97700.43
2022-11-04T22:55:24.886Z,97695.77
2022-11-04T23:00:26.729Z,97692.55
2022-11-04T23:05:31.709Z,97696.23
2022-11-04T23:10:52.293Z,97708.19
2022-11-04T23:16:12.704Z,97720.60
2022-11-04T23:21:37.020Z,97718.15
2022-11-04T23:26:39.000Z,97712.30
2022-11-04T23:31:40.979Z,97707.89
2022-11-04T23:37:01.633Z,97708.65
2022-11-04T23:42:18.886Z,97730.35
2022-11-04T23:47:39.260Z,97753.83
2022-11-04T23:52:59.555Z,97751.28
2022-11-04T23:58:19.977Z,97753.65
